Time;durP1;ratioP1;P1;durP2;ratioP2;P2;SDS_P1;SDS_P2;PMS_P1;PMS_P2;Temp;Humidity;BMP_temperature;BMP_pressure;BME280_temperature;BME280_humidity;BME280_pressure;Samples;Min_cycle;Max_cycle;Signal;HPM_P1;HPM_P2
2022/06/30 00:02:11;;;;;;;2.30;2.20;;;20.10;79.10;;;;;;5221252;28;20214;-43
2022/06/30 00:04:42;;;;;;;3.63;2.20;;;20.10;79.70;;;;;;5210601;28;20191;-45
2022/06/30 00:07:12;;;;;;;4.10;2.27;;;20.10;80.60;;;;;;5202454;28;20611;-44
2022/06/30 00:09:43;;;;;;;3.43;2.17;;;20.10;81.20;;;;;;5192899;28;20288;-43
2022/06/30 00:12:14;;;;;;;2.30;2.20;;;20.00;82.60;;;;;;5220989;28;20203;-44
2022/06/30 00:14:44;;;;;;;3.97;2.70;;;20.10;83.60;;;;;;5204036;28;20654;-46
2022/06/30 00:17:15;;;;;;;4.40;2.00;;;20.10;84.80;;;;;;5210839;28;20185;-45
2022/06/30 00:19:45;;;;;;;2.43;2.33;;;20.10;86.80;;;;;;5210526;28;20190;-45
2022/06/30 00:22:16;;;;;;;2.90;2.50;;;20.10;88.20;;;;;;5207216;28;20220;-44
2022/06/30 00:24:47;;;;;;;2.10;1.97;;;20.10;90.20;;;;;;5203267;28;20574;-44
2022/06/30 00:27:17;;;;;;;3.50;3.20;;;20.00;91.20;;;;;;5209790;28;20179;-44
2022/06/30 00:29:48;;;;;;;2.87;2.67;;;20.00;92.70;;;;;;5207540;28;20252;-45
2022/06/30 00:32:18;;;;;;;5.13;2.70;;;20.00;93.90;;;;;;5223545;28;20583;-45
2022/06/30 00:34:49;;;;;;;2.10;2.10;;;20.00;94.50;;;;;;5223012;28;20179;-44
2022/06/30 00:37:20;;;;;;;2.63;2.43;;;20.00;96.30;;;;;;5229050;28;20179;-45
2022/06/30 00:39:50;;;;;;;6.13;2.53;;;19.90;97.30;;;;;;5212044;28;20191;-44
2022/06/30 00:42:21;;;;;;;2.97;2.87;;;19.90;98.80;;;;;;5207370;28;20207;-44
2022/06/30 00:44:52;;;;;;;2.73;2.60;;;19.90;99.70;;;;;;5210259;28;20187;-44
2022/06/30 00:47:23;;;;;;;2.67;2.47;;;19.80;99.90;;;;;;5224758;28;20464;-45
2022/06/30 00:49:53;;;;;;;3.00;2.70;;;19.80;99.90;;;;;;5211518;28;20218;-44
2022/06/30 00:52:25;;;;;;;2.57;2.37;;;19.70;99.90;;;;;;5217725;28;20225;-44
2022/06/30 00:54:57;;;;;;;9.03;3.70;;;19.70;99.90;;;;;;5222327;28;20180;-43
2022/06/30 00:57:30;;;;;;;2.50;2.30;;;19.80;99.90;;;;;;5218161;28;20481;-43
2022/06/30 01:00:03;;;;;;;3.77;3.37;;;19.80;99.90;;;;;;5186801;28;20797;-44
2022/06/30 01:02:34;;;;;;;2.97;2.87;;;19.90;99.90;;;;;;5188384;28;20527;-43
2022/06/30 01:05:05;;;;;;;2.77;2.67;;;19.90;99.90;;;;;;5199233;28;20496;-45
2022/06/30 01:07:36;;;;;;;2.93;2.57;;;19.90;99.90;;;;;;5204520;28;20952;-45
2022/06/30 01:12:57;;;;;;;3.00;2.80;;;19.90;99.90;;;;;;5215987;28;20253;-45
2022/06/30 01:15:27;;;;;;;5.17;3.10;;;19.90;99.90;;;;;;5213370;28;20438;-44
2022/06/30 01:17:58;;;;;;;7.13;3.20;;;19.90;99.90;;;;;;5210080;28;20179;-44
2022/06/30 01:20:31;;;;;;;5.20;2.70;;;19.90;99.90;;;;;;5213643;28;20187;-43
2022/06/30 01:23:04;;;;;;;5.50;2.90;;;19.90;99.90;;;;;;5200951;28;20230;-44
2022/06/30 01:25:35;;;;;;;3.50;3.20;;;19.90;99.90;;;;;;5203972;28;20462;-45
2022/06/30 01:28:05;;;;;;;4.33;3.40;;;19.90;99.90;;;;;;5217602;28;20827;-44
2022/06/30 01:30:36;;;;;;;11.03;3.30;;;19.90;99.90;;;;;;5212783;28;20290;-43
2022/06/30 01:33:06;;;;;;;3.50;3.20;;;19.80;99.90;;;;;;5211687;28;20295;-45
2022/06/30 01:35:38;;;;;;;8.33;2.80;;;19.80;99.90;;;;;;5221585;28;20251;-43
2022/06/30 01:38:08;;;;;;;3.57;3.20;;;19.80;99.90;;;;;;5206298;28;20549;-44
2022/06/30 01:40:39;;;;;;;3.20;3.00;;;19.80;99.90;;;;;;5194373;28;20445;-44
2022/06/30 01:43:11;;;;;;;4.73;3.33;;;19.90;99.90;;;;;;5208062;28;20230;-44
2022/06/30 01:45:42;;;;;;;3.50;3.07;;;19.80;99.90;;;;;;5206959;28;20520;-45
2022/06/30 01:48:14;;;;;;;2.93;2.73;;;19.80;99.90;;;;;;5208851;28;20468;-45
2022/06/30 01:50:44;;;;;;;4.87;3.47;;;19.80;99.90;;;;;;5190838;28;20473;-45
2022/06/30 01:53:15;;;;;;;3.10;2.90;;;19.90;99.90;;;;;;5201227;28;20596;-44
2022/06/30 01:55:45;;;;;;;4.40;3.03;;;19.90;99.90;;;;;;5191222;28;20187;-46
2022/06/30 01:58:16;;;;;;;5.20;3.33;;;19.90;99.90;;;;;;5188943;28;20550;-45
2022/06/30 02:00:47;;;;;;;3.20;3.10;;;19.90;99.90;;;;;;5218762;28;20180;-44
2022/06/30 02:03:17;;;;;;;3.73;3.53;;;19.90;99.90;;;;;;5192222;28;20286;-44
2022/06/30 02:05:48;;;;;;;3.40;3.10;;;19.90;99.90;;;;;;5203965;28;20190;-44
2022/06/30 02:08:18;;;;;;;4.53;3.67;;;19.90;99.90;;;;;;5220631;28;20183;-44
2022/06/30 02:10:49;;;;;;;7.33;3.50;;;19.80;99.90;;;;;;5194536;28;20208;-44
2022/06/30 02:13:20;;;;;;;4.47;3.70;;;19.80;99.90;;;;;;5207573;28;20693;-45
2022/06/30 02:15:51;;;;;;;9.77;3.30;;;19.70;99.90;;;;;;5196480;28;20179;-48
2022/06/30 02:18:22;;;;;;;3.87;3.60;;;19.80;99.90;;;;;;5225868;28;20467;-44
2022/06/30 02:20:52;;;;;;;4.93;3.63;;;19.70;99.90;;;;;;5190404;28;20188;-45
2022/06/30 02:23:23;;;;;;;3.17;2.93;;;19.70;99.90;;;;;;5209163;28;20470;-45
2022/06/30 02:25:54;;;;;;;4.57;3.27;;;19.70;99.90;;;;;;5216489;28;20193;-45
2022/06/30 02:28:24;;;;;;;3.37;3.17;;;19.70;99.90;;;;;;5213660;28;20233;-45
2022/06/30 02:30:55;;;;;;;3.77;3.47;;;19.70;99.90;;;;;;5207408;28;20203;-45
2022/06/30 02:33:25;;;;;;;3.50;3.20;;;19.70;99.90;;;;;;5212961;28;20288;-47
2022/06/30 02:35:56;;;;;;;3.23;3.03;;;19.70;99.90;;;;;;5216743;28;20207;-43
2022/06/30 02:38:27;;;;;;;4.27;3.17;;;19.70;99.90;;;;;;5210054;28;20171;-43
2022/06/30 02:40:57;;;;;;;4.20;3.83;;;19.70;99.90;;;;;;5209143;28;20313;-44
2022/06/30 02:43:28;;;;;;;4.00;3.70;;;19.70;99.90;;;;;;5216934;28;20203;-44
2022/06/30 02:45:58;;;;;;;9.87;3.03;;;19.70;99.90;;;;;;5191659;28;20270;-44
2022/06/30 02:48:29;;;;;;;5.10;3.70;;;19.70;99.90;;;;;;5220132;28;20202;-44
2022/06/30 02:50:59;;;;;;;5.23;3.40;;;19.80;99.90;;;;;;5199023;28;20794;-44
2022/06/30 02:53:30;;;;;;;17.50;4.30;;;19.70;99.90;;;;;;5209742;28;20631;-44
2022/06/30 02:56:01;;;;;;;6.87;4.07;;;19.60;99.90;;;;;;5201364;28;20180;-44
2022/06/30 02:58:31;;;;;;;3.53;3.20;;;19.60;99.90;;;;;;5215805;28;20190;-44
2022/06/30 03:01:02;;;;;;;7.90;3.90;;;19.60;99.90;;;;;;5211695;28;20218;-44
2022/06/30 03:03:32;;;;;;;11.37;3.73;;;19.60;99.90;;;;;;5215033;28;20203;-45
2022/06/30 03:06:03;;;;;;;7.10;4.10;;;19.60;99.90;;;;;;5222415;28;20199;-43
2022/06/30 03:08:33;;;;;;;5.00;3.70;;;19.60;99.90;;;;;;5222240;28;20191;-45
2022/06/30 03:11:05;;;;;;;3.77;3.57;;;19.60;99.90;;;;;;5194620;28;20211;-45
2022/06/30 03:13:36;;;;;;;3.40;3.07;;;19.60;99.90;;;;;;5199543;28;20628;-45
2022/06/30 03:16:06;;;;;;;3.10;2.90;;;19.60;99.90;;;;;;5194695;28;20473;-44
2022/06/30 03:18:37;;;;;;;3.50;3.33;;;19.70;99.90;;;;;;5210090;28;20187;-44
2022/06/30 03:21:08;;;;;;;2.90;2.70;;;19.70;99.90;;;;;;5228428;28;20384;-44
2022/06/30 03:23:39;;;;;;;2.80;2.70;;;19.80;99.90;;;;;;5195882;28;20219;-46
2022/06/30 03:26:10;;;;;;;3.10;2.90;;;19.90;99.90;;;;;;5208154;28;20207;-45
2022/06/30 03:28:40;;;;;;;3.10;2.80;;;19.90;99.90;;;;;;5216115;28;20215;-45
2022/06/30 03:31:11;;;;;;;3.23;3.00;;;20.00;99.90;;;;;;5191475;28;20212;-46
2022/06/30 03:33:41;;;;;;;2.67;2.57;;;20.00;99.90;;;;;;5210799;28;20252;-45
2022/06/30 03:36:12;;;;;;;3.33;3.13;;;20.10;99.90;;;;;;5217328;28;20218;-44
2022/06/30 03:38:42;;;;;;;2.63;2.53;;;20.10;99.90;;;;;;5219547;28;20562;-44
2022/06/30 03:41:13;;;;;;;3.17;2.93;;;20.10;99.90;;;;;;5218188;28;20191;-44
2022/06/30 03:43:44;;;;;;;2.37;2.27;;;20.20;99.90;;;;;;5216106;28;20215;-45
2022/06/30 03:46:14;;;;;;;2.80;2.20;;;20.20;99.90;;;;;;5204022;28;20183;-44
2022/06/30 03:48:45;;;;;;;8.03;3.30;;;20.20;99.90;;;;;;5196972;28;20506;-44
2022/06/30 03:51:15;;;;;;;5.07;3.13;;;20.20;99.90;;;;;;5207732;28;20223;-46
2022/06/30 03:53:46;;;;;;;4.30;3.30;;;20.30;99.90;;;;;;5209480;28;20215;-45
2022/06/30 03:56:17;;;;;;;3.63;3.40;;;20.30;99.90;;;;;;5214250;28;20594;-44
2022/06/30 03:58:47;;;;;;;3.50;3.20;;;20.30;99.90;;;;;;5203660;28;20226;-44
2022/06/30 04:01:18;;;;;;;18.63;3.83;;;20.30;99.90;;;;;;5222642;28;20211;-44
2022/06/30 04:03:49;;;;;;;4.10;3.73;;;20.30;99.90;;;;;;5206929;28;20203;-46
2022/06/30 04:06:19;;;;;;;4.33;3.00;;;20.30;99.90;;;;;;5209036;28;20602;-44
2022/06/30 04:08:50;;;;;;;3.50;2.97;;;20.20;99.90;;;;;;5209239;28;20191;-45
2022/06/30 04:11:20;;;;;;;5.03;3.57;;;20.30;99.90;;;;;;5209670;28;20724;-45
2022/06/30 04:13:51;;;;;;;4.50;3.23;;;20.40;99.90;;;;;;5199677;28;20644;-45
2022/06/30 04:16:21;;;;;;;4.10;3.73;;;20.40;99.90;;;;;;5207532;28;20587;-43
2022/06/30 04:18:54;;;;;;;3.10;2.90;;;20.50;99.90;;;;;;5224424;28;20188;-44
2022/06/30 04:21:25;;;;;;;2.90;2.70;;;20.70;99.90;;;;;;5198231;28;20333;-48
2022/06/30 04:23:55;;;;;;;3.47;2.90;;;20.70;99.90;;;;;;5209122;28;20453;-44
2022/06/30 04:26:26;;;;;;;4.17;3.60;;;20.70;99.90;;;;;;5209676;28;20200;-43
2022/06/30 04:28:56;;;;;;;4.37;3.03;;;20.60;99.90;;;;;;5208909;28;20188;-44
2022/06/30 04:34:16;;;;;;;4.57;2.70;;;20.60;99.90;;;;;;5215039;28;20241;-44
2022/06/30 04:36:47;;;;;;;4.13;3.77;;;20.60;99.90;;;;;;5190328;28;20476;-46
2022/06/30 04:39:18;;;;;;;5.70;3.60;;;20.80;99.90;;;;;;5207719;28;20195;-44
2022/06/30 04:41:48;;;;;;;4.87;3.60;;;20.90;99.90;;;;;;5203885;28;20467;-44
2022/06/30 04:44:19;;;;;;;6.53;4.20;;;21.10;99.90;;;;;;5219766;28;20226;-49
2022/06/30 04:46:49;;;;;;;5.27;3.40;;;21.20;99.90;;;;;;5212404;28;20193;-44
2022/06/30 04:49:20;;;;;;;3.70;3.20;;;21.20;99.90;;;;;;5207478;28;20217;-44
2022/06/30 04:51:51;;;;;;;6.37;4.10;;;21.10;99.90;;;;;;5195646;28;20182;-45
2022/06/30 04:54:21;;;;;;;4.07;3.70;;;21.20;99.90;;;;;;5214135;28;20706;-43
2022/06/30 04:56:53;;;;;;;4.53;3.67;;;21.10;99.90;;;;;;5222039;28;20222;-44
2022/06/30 04:59:23;;;;;;;4.33;3.97;;;21.10;99.90;;;;;;5214362;28;20180;-44
2022/06/30 05:01:54;;;;;;;5.30;3.73;;;21.10;99.90;;;;;;5209036;28;20442;-44
2022/06/30 05:04:24;;;;;;;4.00;3.70;;;21.20;99.90;;;;;;5187147;28;20558;-44
2022/06/30 05:06:55;;;;;;;5.70;3.67;;;21.20;99.90;;;;;;5206393;28;20278;-43
2022/06/30 05:09:26;;;;;;;4.10;3.70;;;21.30;99.90;;;;;;5211584;28;20202;-44
2022/06/30 05:11:56;;;;;;;5.03;3.63;;;21.30;99.90;;;;;;5206568;28;20264;-45
2022/06/30 05:14:27;;;;;;;5.20;3.17;;;21.30;99.90;;;;;;5222122;28;20183;-46
2022/06/30 05:16:57;;;;;;;6.87;3.60;;;21.30;99.90;;;;;;5223233;28;20213;-43
2022/06/30 05:19:28;;;;;;;4.40;3.83;;;21.40;99.90;;;;;;5229408;28;20615;-45
2022/06/30 05:21:59;;;;;;;6.37;3.80;;;21.60;99.90;;;;;;5224478;28;20188;-45
2022/06/30 05:27:19;;;;;;;8.90;3.23;;;22.30;99.90;;;;;;5226725;28;20758;-43
2022/06/30 05:29:50;;;;;;;5.47;3.20;;;23.80;99.90;;;;;;5211880;28;20465;-44
2022/06/30 05:32:20;;;;;;;3.50;3.20;;;25.40;99.40;;;;;;5204461;28;20202;-45
2022/06/30 05:34:51;;;;;;;4.90;3.50;;;26.80;89.60;;;;;;5207875;28;20285;-45
2022/06/30 05:37:22;;;;;;;3.77;2.50;;;27.70;75.60;;;;;;5217696;28;20222;-43
2022/06/30 05:39:52;;;;;;;2.83;2.73;;;28.10;68.60;;;;;;5205281;28;20201;-44
2022/06/30 05:42:23;;;;;;;3.20;3.00;;;28.00;66.10;;;;;;5224070;28;20226;-44
2022/06/30 05:44:53;;;;;;;3.10;2.87;;;28.40;63.00;;;;;;5203045;28;20195;-44
2022/06/30 05:47:24;;;;;;;3.23;2.93;;;28.10;62.70;;;;;;5223650;28;20206;-44
2022/06/30 05:49:55;;;;;;;3.30;3.00;;;27.60;62.70;;;;;;5224280;28;20218;-45
2022/06/30 05:52:25;;;;;;;5.50;2.90;;;26.80;65.60;;;;;;5200384;28;20206;-45
2022/06/30 05:54:56;;;;;;;6.20;3.47;;;25.60;68.10;;;;;;5201770;28;20543;-44
2022/06/30 05:57:27;;;;;;;3.37;3.10;;;24.60;73.90;;;;;;5226166;28;20187;-44
2022/06/30 05:59:57;;;;;;;4.10;3.70;;;24.60;76.00;;;;;;5191757;28;20199;-45
2022/06/30 06:02:28;;;;;;;2.77;2.57;;;25.50;75.70;;;;;;5219835;28;20285;-44
2022/06/30 06:04:58;;;;;;;14.90;4.07;;;26.70;70.20;;;;;;5218510;28;20187;-46
2022/06/30 06:07:29;;;;;;;4.63;3.40;;;27.80;66.00;;;;;;5214847;28;20190;-44
2022/06/30 06:09:59;;;;;;;3.00;2.80;;;28.30;61.70;;;;;;5229466;28;20550;-44
2022/06/30 06:12:30;;;;;;;6.70;3.27;;;27.50;62.50;;;;;;5206137;28;20218;-44
2022/06/30 06:15:01;;;;;;;4.83;3.07;;;26.60;65.70;;;;;;5224306;28;20183;-44
2022/06/30 06:17:42;;;;;;;3.40;3.20;;;25.90;68.90;;;;;;5225295;28;20183;-44
2022/06/30 06:20:15;;;;;;;5.00;3.70;;;25.00;72.00;;;;;;5219432;28;20183;-44
2022/06/30 06:22:46;;;;;;;3.77;3.47;;;24.40;75.50;;;;;;5226219;28;20504;-44
2022/06/30 06:25:17;;;;;;;3.23;2.97;;;23.70;79.40;;;;;;5207886;28;20466;-45
2022/06/30 06:30:38;;;;;;;16.70;3.57;;;22.60;90.50;;;;;;5226150;28;20262;-45
2022/06/30 06:33:08;;;;;;;6.83;3.97;;;22.20;95.70;;;;;;5208119;28;20477;-44
2022/06/30 06:35:39;;;;;;;2.93;2.83;;;22.00;99.90;;;;;;5203957;28;20186;-46
2022/06/30 06:38:10;;;;;;;4.00;3.60;;;22.00;99.90;;;;;;5220750;28;20189;-44
2022/06/30 06:40:41;;;;;;;4.20;3.87;;;22.00;99.90;;;;;;5220679;28;20180;-44
2022/06/30 06:43:12;;;;;;;6.47;3.70;;;22.00;99.90;;;;;;5198391;28;20218;-45
2022/06/30 06:45:42;;;;;;;3.67;3.37;;;22.20;99.90;;;;;;5210958;28;20905;-44
2022/06/30 06:48:13;;;;;;;4.67;4.13;;;22.20;99.90;;;;;;5207439;28;20186;-45
2022/06/30 06:50:44;;;;;;;5.00;4.60;;;22.30;99.90;;;;;;5200001;28;20211;-44
2022/06/30 06:53:14;;;;;;;4.50;4.20;;;22.50;99.90;;;;;;5219703;28;20671;-44
2022/06/30 06:55:45;;;;;;;4.87;4.40;;;22.70;99.90;;;;;;5204846;28;20272;-44
2022/06/30 06:58:16;;;;;;;6.97;4.80;;;22.70;99.90;;;;;;5200774;28;20663;-45
2022/06/30 07:00:46;;;;;;;5.17;4.53;;;22.60;99.90;;;;;;5196474;28;20236;-46
2022/06/30 07:03:17;;;;;;;4.73;4.30;;;22.60;99.90;;;;;;5201066;28;20211;-45
2022/06/30 07:05:48;;;;;;;5.10;4.70;;;22.40;99.90;;;;;;5210543;28;20195;-44
2022/06/30 07:08:19;;;;;;;5.50;5.00;;;22.20;99.90;;;;;;5204319;28;20187;-44
2022/06/30 07:10:50;;;;;;;6.30;4.53;;;22.10;99.90;;;;;;5200541;28;20474;-45
2022/06/30 07:13:20;;;;;;;5.83;4.50;;;22.10;99.90;;;;;;5206787;28;20214;-45
2022/06/30 07:15:51;;;;;;;5.30;4.80;;;22.00;99.90;;;;;;5188994;28;20318;-45
2022/06/30 07:18:22;;;;;;;5.67;4.67;;;22.00;99.90;;;;;;5219183;28;20191;-45
2022/06/30 07:20:53;;;;;;;6.23;5.70;;;21.90;99.90;;;;;;5207816;28;20194;-45
2022/06/30 07:23:24;;;;;;;9.67;5.10;;;21.80;99.90;;;;;;5218114;28;20265;-45
2022/06/30 07:25:55;;;;;;;6.00;5.47;;;21.80;99.90;;;;;;5216567;28;20548;-44
2022/06/30 07:28:26;;;;;;;6.27;5.17;;;22.00;99.90;;;;;;5222785;28;20532;-45
2022/06/30 07:30:57;;;;;;;6.70;5.47;;;22.30;99.90;;;;;;5223128;28;20202;-45
2022/06/30 07:33:27;;;;;;;4.77;4.57;;;22.40;99.90;;;;;;5211988;28;20790;-44
2022/06/30 07:35:58;;;;;;;6.10;4.40;;;22.50;99.90;;;;;;5196012;28;20539;-45
2022/06/30 07:38:29;;;;;;;5.20;4.77;;;23.10;99.90;;;;;;5171433;28;20294;-45
2022/06/30 07:41:00;;;;;;;4.20;3.90;;;23.80;99.90;;;;;;5223436;28;20201;-45
2022/06/30 07:43:30;;;;;;;4.13;3.87;;;24.50;99.90;;;;;;5216047;28;20578;-45
2022/06/30 07:46:01;;;;;;;5.60;4.17;;;25.20;99.90;;;;;;5224591;28;20627;-45
2022/06/30 07:48:31;;;;;;;9.70;4.73;;;25.50;97.50;;;;;;5190354;28;20191;-45
2022/06/30 07:51:02;;;;;;;5.07;4.70;;;25.90;95.20;;;;;;5216933;28;20219;-44
2022/06/30 07:53:33;;;;;;;4.97;4.60;;;25.80;93.60;;;;;;5216812;28;20208;-45
2022/06/30 07:56:04;;;;;;;4.83;4.10;;;25.80;93.00;;;;;;5223403;28;20428;-45
2022/06/30 07:58:34;;;;;;;4.07;3.77;;;25.80;93.50;;;;;;5205192;28;20211;-44
2022/06/30 08:01:05;;;;;;;8.83;4.40;;;26.20;91.20;;;;;;5224677;28;20495;-45
2022/06/30 08:03:36;;;;;;;6.80;5.50;;;26.10;90.70;;;;;;5216453;28;20207;-43
2022/06/30 08:06:07;;;;;;;6.10;4.90;;;26.10;90.40;;;;;;5224145;28;20175;-44
2022/06/30 08:08:38;;;;;;;5.70;5.13;;;26.30;89.30;;;;;;5220859;28;20213;-47
2022/06/30 08:11:11;;;;;;;10.13;5.90;;;26.60;87.10;;;;;;5201204;28;20215;-45
2022/06/30 08:13:42;;;;;;;5.93;5.07;;;26.60;84.70;;;;;;5219878;28;20563;-43
2022/06/30 08:16:14;;;;;;;8.90;3.70;;;26.80;86.00;;;;;;5226885;28;20406;-47
2022/06/30 08:18:45;;;;;;;8.50;4.60;;;28.90;78.60;;;;;;5209067;28;20225;-48
2022/06/30 08:21:16;;;;;;;5.30;4.90;;;30.30;65.20;;;;;;5207548;28;20437;-45
2022/06/30 08:23:46;;;;;;;5.13;4.00;;;30.40;61.00;;;;;;5208208;28;20240;-48
2022/06/30 08:26:17;;;;;;;4.90;4.47;;;30.90;59.70;;;;;;5224172;28;20183;-45
2022/06/30 08:28:48;;;;;;;6.20;4.60;;;31.40;56.30;;;;;;5204727;28;20556;-44
2022/06/30 08:31:19;;;;;;;11.00;4.37;;;31.90;54.40;;;;;;5230310;28;20694;-46
2022/06/30 08:33:52;;;;;;;4.13;3.60;;;32.60;52.00;;;;;;5207312;28;20472;-46
2022/06/30 08:36:22;;;;;;;9.90;4.27;;;33.80;49.30;;;;;;5208412;28;20175;-45
2022/06/30 08:38:53;;;;;;;8.23;3.90;;;33.10;48.70;;;;;;5209735;28;20552;-45
2022/06/30 08:44:17;;;;;;;4.57;4.27;;;31.50;52.30;;;;;;5226980;28;20209;-46
2022/06/30 08:46:48;;;;;;;4.57;4.20;;;31.80;50.80;;;;;;5230456;28;20794;-44
2022/06/30 08:49:19;;;;;;;6.77;4.60;;;31.50;51.70;;;;;;5210465;28;20743;-46
2022/06/30 08:51:54;;;;;;;4.50;4.20;;;31.80;51.30;;;;;;5218158;28;20418;-45
2022/06/30 08:54:29;;;;;;;4.43;4.20;;;32.00;51.50;;;;;;5222792;28;20281;-47
2022/06/30 08:57:02;;;;;;;4.97;3.73;;;31.40;52.40;;;;;;5210873;28;20460;-45
2022/06/30 08:59:32;;;;;;;5.03;4.63;;;30.30;54.30;;;;;;5220866;28;20442;-45
2022/06/30 09:02:05;;;;;;;4.83;4.37;;;29.00;57.00;;;;;;5229141;28;20760;-44
2022/06/30 09:04:36;;;;;;;5.13;4.20;;;27.80;60.00;;;;;;5209256;28;20191;-45
2022/06/30 09:07:06;;;;;;;7.23;5.27;;;27.10;63.30;;;;;;5209240;28;20981;-45
2022/06/30 09:09:38;;;;;;;4.60;4.00;;;26.50;65.70;;;;;;5212247;28;20277;-45
2022/06/30 09:12:16;;;;;;;5.67;5.10;;;26.10;68.40;;;;;;5207800;28;20670;-46
2022/06/30 09:14:48;;;;;;;5.00;4.60;;;25.70;70.70;;;;;;5220302;28;20421;-46
2022/06/30 09:17:22;;;;;;;6.30;3.83;;;25.60;73.10;;;;;;5209305;28;20487;-47
2022/06/30 09:19:58;;;;;;;4.97;4.50;;;25.70;74.90;;;;;;5227695;28;20444;-45
2022/06/30 09:22:34;;;;;;;7.10;5.20;;;25.90;74.90;;;;;;5205901;28;20808;-46
2022/06/30 09:25:11;;;;;;;5.40;5.00;;;25.90;75.60;;;;;;5220325;28;20421;-51
2022/06/30 09:27:43;;;;;;;7.47;4.70;;;26.20;76.60;;;;;;5192696;28;20514;-49
2022/06/30 09:30:19;;;;;;;4.93;4.63;;;26.90;74.10;;;;;;5224662;28;21038;-52
2022/06/30 09:33:02;;;;;;;4.87;4.10;;;27.20;71.70;;;;;;5210152;28;20499;-48
2022/06/30 09:35:32;;;;;;;4.43;4.13;;;26.50;73.30;;;;;;5217937;28;20492;-46
2022/06/30 09:38:04;;;;;;;7.37;4.87;;;26.50;73.90;;;;;;5208212;28;20902;-47
2022/06/30 09:43:32;;;;;;;6.77;5.30;;;26.50;74.50;;;;;;5221447;28;20433;-48
2022/06/30 09:46:04;;;;;;;5.53;5.10;;;26.70;72.60;;;;;;5227226;28;20414;-49
2022/06/30 09:48:40;;;;;;;7.53;6.23;;;26.80;73.70;;;;;;5206281;28;20433;-48
2022/06/30 09:51:10;;;;;;;8.33;5.00;;;26.90;73.60;;;;;;5205982;28;20464;-46
2022/06/30 09:53:41;;;;;;;16.43;5.27;;;26.60;74.30;;;;;;5220640;28;20508;-48
2022/06/30 09:56:15;;;;;;;5.20;4.90;;;26.20;75.40;;;;;;5224726;28;20178;-47
2022/06/30 09:58:47;;;;;;;7.73;5.30;;;25.80;77.10;;;;;;5208459;28;20587;-49
2022/06/30 10:01:17;;;;;;;4.30;4.00;;;25.60;79.60;;;;;;5194120;28;20422;-47
2022/06/30 10:03:59;;;;;;;5.30;5.00;;;25.80;79.30;;;;;;5207666;28;20468;-47
2022/06/30 10:06:29;;;;;;;6.83;4.70;;;26.20;78.70;;;;;;5225766;28;20540;-46
2022/06/30 10:09:00;;;;;;;4.20;3.90;;;26.30;77.30;;;;;;5211081;28;20438;-49
2022/06/30 10:11:31;;;;;;;5.20;4.40;;;26.40;77.70;;;;;;5205323;28;20249;-45
2022/06/30 10:14:02;;;;;;;4.73;4.33;;;26.70;77.20;;;;;;5216769;28;20208;-48
2022/06/30 10:16:33;;;;;;;11.97;5.83;;;26.60;76.50;;;;;;5208822;28;20334;-44
2022/06/30 10:19:03;;;;;;;5.40;4.90;;;26.60;77.10;;;;;;5203386;28;20192;-47
2022/06/30 10:21:36;;;;;;;6.30;5.80;;;26.60;76.50;;;;;;5197083;28;20673;-46
2022/06/30 10:24:08;;;;;;;7.30;5.97;;;26.80;76.90;;;;;;5209109;28;20211;-46
2022/06/30 10:30:10;;;;;;;9.60;4.90;;;26.20;77.90;;;;;;5186522;28;21000;-47
2022/06/30 10:32:50;;;;;;;6.63;6.00;;;26.70;77.70;;;;;;5205896;28;21197;-47
2022/06/30 10:35:45;;;;;;;6.00;5.50;;;27.10;75.40;;;;;;5216850;28;20778;-47
2022/06/30 10:38:45;;;;;;;7.83;6.73;;;27.30;75.20;;;;;;5197120;28;20977;-46
2022/06/30 10:41:17;;;;;;;10.87;6.73;;;27.30;74.10;;;;;;5185521;28;20435;-48
2022/06/30 10:44:03;;;;;;;13.83;5.97;;;27.00;74.80;;;;;;5219039;28;20594;-47
2022/06/30 10:46:35;;;;;;;8.20;7.10;;;27.10;74.30;;;;;;5216912;28;20751;-47
2022/06/30 10:49:11;;;;;;;8.13;6.47;;;27.10;73.80;;;;;;5222667;28;20434;-47
2022/06/30 10:51:42;;;;;;;7.80;6.97;;;26.80;74.80;;;;;;5208137;28;20471;-46
2022/06/30 10:54:34;;;;;;;6.83;5.73;;;26.60;75.30;;;;;;5208029;28;20561;-47
2022/06/30 10:57:04;;;;;;;8.80;5.63;;;26.50;76.80;;;;;;5204934;28;20187;-46
2022/06/30 10:59:43;;;;;;;6.23;5.60;;;27.10;74.80;;;;;;5216948;28;20444;-48
2022/06/30 11:02:14;;;;;;;6.40;5.80;;;27.20;74.00;;;;;;5182511;28;20207;-46
2022/06/30 11:04:50;;;;;;;7.00;6.27;;;27.10;73.20;;;;;;5224815;28;20798;-47
2022/06/30 11:07:23;;;;;;;6.70;6.10;;;26.70;73.80;;;;;;5199612;28;20499;-45
2022/06/30 11:09:55;;;;;;;6.33;5.73;;;26.40;75.50;;;;;;5220488;28;20479;-45
2022/06/30 11:12:32;;;;;;;7.50;6.70;;;26.30;76.00;;;;;;5209299;28;20449;-45
2022/06/30 11:15:03;;;;;;;12.90;6.30;;;26.60;76.20;;;;;;5203223;28;20569;-46
2022/06/30 11:17:39;;;;;;;7.13;6.43;;;26.60;76.20;;;;;;5202731;28;20431;-45
2022/06/30 11:20:13;;;;;;;10.70;6.63;;;26.40;76.90;;;;;;5190437;28;20494;-53
2022/06/30 11:22:44;;;;;;;6.57;5.70;;;26.30;77.60;;;;;;5221029;28;20472;-47
2022/06/30 11:28:14;;;;;;;9.60;6.40;;;27.10;76.40;;;;;;5207150;28;20530;-46
2022/06/30 11:30:45;;;;;;;7.53;6.90;;;27.60;74.00;;;;;;5226139;28;20506;-45
2022/06/30 11:33:16;;;;;;;7.33;6.73;;;27.50;73.10;;;;;;5204013;28;20461;-46
2022/06/30 11:36:00;;;;;;;7.00;6.40;;;27.30;73.90;;;;;;5221279;28;20620;-47
2022/06/30 11:38:31;;;;;;;6.43;5.83;;;27.50;72.10;;;;;;5219031;28;20473;-47
2022/06/30 11:41:54;;;;;;;11.17;5.90;;;27.60;72.10;;;;;;5191150;28;20434;-45
2022/06/30 11:43:53;;;;;;;15.90;7.50;;;27.50;72.30;;;;;;5220081;28;20914;-47
2022/06/30 11:46:23;;;;;;;10.00;5.47;;;27.70;72.00;;;;;;5226674;28;20487;-47
2022/06/30 11:48:54;;;;;;;7.97;6.70;;;27.70;71.80;;;;;;5215110;28;20221;-47
2022/06/30 11:51:25;;;;;;;7.20;6.00;;;27.60;71.70;;;;;;5224608;28;20210;-48
2022/06/30 11:53:56;;;;;;;7.17;6.47;;;27.30;73.30;;;;;;5204959;28;20210;-48
2022/06/30 11:56:50;;;;;;;7.67;6.47;;;27.20;72.60;;;;;;5219634;28;20176;-47
2022/06/30 11:59:21;;;;;;;8.33;6.70;;;26.80;73.80;;;;;;5198392;28;20572;-48
2022/06/30 12:02:06;;;;;;;7.10;6.40;;;26.70;74.90;;;;;;5223507;28;20441;-46
2022/06/30 12:04:41;;;;;;;8.23;6.30;;;26.60;75.40;;;;;;5207655;28;20494;-47
2022/06/30 12:07:17;;;;;;;7.50;6.47;;;26.60;75.30;;;;;;5215705;28;20578;-48
2022/06/30 12:09:49;;;;;;;7.70;6.33;;;26.70;76.40;;;;;;5218825;28;20465;-49
2022/06/30 12:12:28;;;;;;;9.30;8.13;;;27.00;75.20;;;;;;5210970;28;20453;-48
2022/06/30 12:15:18;;;;;;;8.63;6.80;;;26.90;75.00;;;;;;5222808;28;20437;-47
2022/06/30 12:17:52;;;;;;;9.03;7.03;;;26.90;74.60;;;;;;5222664;28;20438;-47
2022/06/30 12:20:26;;;;;;;12.17;7.37;;;27.10;74.80;;;;;;5226686;28;20450;-47
2022/06/30 12:22:57;;;;;;;6.07;5.47;;;26.90;74.30;;;;;;5221965;28;20457;-48
2022/06/30 12:25:28;;;;;;;7.20;5.80;;;26.70;74.40;;;;;;5208713;28;20526;-47
2022/06/30 12:27:59;;;;;;;8.17;5.80;;;26.80;74.50;;;;;;5225626;28;20542;-48
2022/06/30 12:30:37;;;;;;;6.47;5.87;;;26.70;74.10;;;;;;5223132;28;20572;-49
2022/06/30 12:33:08;;;;;;;19.47;6.70;;;27.10;73.80;;;;;;5223535;28;20253;-48
2022/06/30 12:35:39;;;;;;;6.00;5.53;;;27.50;71.90;;;;;;5208263;28;20427;-49
2022/06/30 12:38:16;;;;;;;9.90;6.83;;;27.60;71.60;;;;;;5222995;28;20465;-45
2022/06/30 12:40:48;;;;;;;23.60;6.83;;;27.80;71.10;;;;;;5209879;28;20259;-44
2022/06/30 12:43:20;;;;;;;6.33;5.73;;;27.90;70.80;;;;;;5195680;28;20460;-45
2022/06/30 12:45:56;;;;;;;6.20;5.67;;;27.70;70.90;;;;;;5208556;28;20441;-46
2022/06/30 12:48:42;;;;;;;6.43;5.90;;;27.60;71.30;;;;;;5223865;28;20425;-45
2022/06/30 12:51:17;;;;;;;8.70;7.00;;;27.60;71.10;;;;;;5218350;28;20510;-44
2022/06/30 12:53:57;;;;;;;8.53;5.80;;;27.50;70.40;;;;;;5210925;28;20459;-46
2022/06/30 12:56:29;;;;;;;7.63;6.87;;;26.90;71.80;;;;;;5224881;28;20965;-45
2022/06/30 12:59:04;;;;;;;7.10;6.50;;;26.60;73.80;;;;;;5206286;28;20449;-44
2022/06/30 13:01:43;;;;;;;7.57;6.73;;;26.60;74.50;;;;;;5199738;28;20835;-45
2022/06/30 13:04:16;;;;;;;14.20;7.40;;;26.70;74.50;;;;;;5221848;28;20476;-45
2022/06/30 13:06:49;;;;;;;7.40;6.43;;;26.90;74.20;;;;;;5224256;28;20462;-47
2022/06/30 13:09:25;;;;;;;7.03;6.20;;;26.90;73.90;;;;;;5208797;28;20446;-45
2022/06/30 13:11:58;;;;;;;6.23;5.63;;;27.00;73.90;;;;;;5220664;28;20441;-46
2022/06/30 13:14:31;;;;;;;10.50;6.10;;;27.20;73.50;;;;;;5220074;28;20430;-48
2022/06/30 13:17:02;;;;;;;13.17;7.30;;;27.50;71.90;;;;;;5228562;28;20436;-47
2022/06/30 13:19:34;;;;;;;7.70;6.40;;;27.60;71.20;;;;;;5224964;28;20437;-45
2022/06/30 13:22:05;;;;;;;14.30;7.57;;;27.50;71.40;;;;;;5225973;28;20469;-46
2022/06/30 13:24:36;;;;;;;7.87;6.30;;;27.40;71.80;;;;;;5211775;28;20556;-46
2022/06/30 13:27:12;;;;;;;7.27;6.23;;;27.30;71.50;;;;;;5224129;28;20942;-45
2022/06/30 13:29:42;;;;;;;7.90;6.40;;;27.20;71.20;;;;;;5220260;28;20203;-46
2022/06/30 13:32:13;;;;;;;6.60;6.00;;;27.20;71.90;;;;;;5222145;28;20925;-45
2022/06/30 13:34:44;;;;;;;5.80;5.33;;;27.20;70.80;;;;;;5226163;28;20232;-45